Time;durP1;ratioP1;P1;durP2;ratioP2;P2;SDS_P1;SDS_P2;PMS_P1;PMS_P2;Temp;Humidity;BMP_temperature;BMP_pressure;BME280_temperature;BME280_humidity;BME280_pressure;Samples;Min_cycle;Max_cycle;Signal;HPM_P1;HPM_P2
2024/01/25 00:01:08;;;;;;;17.42;3.70;;;9.30;99.90;;;;;;5043814;23;20162;-93
2024/01/25 00:03:09;;;;;;;12.63;2.17;;;9.30;99.90;;;;;;5068451;23;20716;-93
2024/01/25 00:05:10;;;;;;;18.58;3.80;;;9.20;99.90;;;;;;5043785;23;20489;-93
2024/01/25 00:07:11;;;;;;;18.98;2.67;;;9.20;99.90;;;;;;5043572;23;20182;-93
2024/01/25 00:09:12;;;;;;;23.35;2.42;;;9.30;99.90;;;;;;5044174;23;20609;-93
2024/01/25 00:11:13;;;;;;;12.48;2.35;;;9.30;99.90;;;;;;5067747;23;20154;-93
2024/01/25 00:13:14;;;;;;;13.95;2.90;;;9.30;99.90;;;;;;5044387;23;20176;-94
2024/01/25 00:15:15;;;;;;;21.05;2.42;;;9.30;99.90;;;;;;5043557;23;20545;-94
2024/01/25 00:17:15;;;;;;;19.23;2.75;;;9.30;99.90;;;;;;5067453;23;20178;-93
2024/01/25 00:19:16;;;;;;;19.63;3.80;;;9.20;99.90;;;;;;5026694;23;20167;-94
2024/01/25 00:21:17;;;;;;;20.58;3.05;;;9.10;99.90;;;;;;5019788;23;20686;-94
2024/01/25 00:23:18;;;;;;;13.60;2.75;;;9.00;99.90;;;;;;5020929;23;20154;-93
2024/01/25 00:25:19;;;;;;;24.95;4.30;;;9.00;99.90;;;;;;5019980;23;20155;-93
2024/01/25 00:27:19;;;;;;;12.10;3.13;;;8.90;99.90;;;;;;5021332;23;20576;-93
2024/01/25 00:29:20;;;;;;;19.95;3.25;;;8.90;99.90;;;;;;5022490;23;20203;-94
2024/01/25 00:31:23;;;;;;;12.93;2.92;;;9.00;99.90;;;;;;5021170;23;20166;-94
2024/01/25 00:33:24;;;;;;;11.40;3.47;;;9.00;99.90;;;;;;5045779;23;20161;-93
2024/01/25 00:35:25;;;;;;;16.33;2.28;;;8.90;99.90;;;;;;5021315;23;20195;-93
2024/01/25 00:37:26;;;;;;;12.55;3.72;;;8.90;99.90;;;;;;5045527;23;20257;-94
2024/01/25 00:39:28;;;;;;;32.22;6.30;;;8.90;99.90;;;;;;5021362;23;20155;-93
2024/01/25 00:41:32;;;;;;;27.65;3.83;;;8.80;99.90;;;;;;5021420;23;20159;-94
2024/01/25 00:43:33;;;;;;;19.35;3.17;;;8.90;99.90;;;;;;5046730;23;20154;-94
2024/01/25 00:45:34;;;;;;;17.55;3.13;;;9.00;99.90;;;;;;5044911;23;20158;-94
2024/01/25 00:47:35;;;;;;;23.80;3.15;;;9.00;99.90;;;;;;5021185;23;20155;-94
2024/01/25 00:49:36;;;;;;;15.00;1.67;;;9.00;99.90;;;;;;5021504;23;20147;-93
2024/01/25 00:51:37;;;;;;;17.08;2.85;;;9.00;99.90;;;;;;5045184;23;20206;-92
2024/01/25 00:53:38;;;;;;;26.17;2.97;;;9.00;99.90;;;;;;5021635;23;20151;-93
2024/01/25 00:55:41;;;;;;;8.95;1.92;;;9.10;99.90;;;;;;5045226;23;20185;-94
2024/01/25 00:57:42;;;;;;;22.95;2.67;;;9.10;99.90;;;;;;5021339;23;20175;-94
2024/01/25 00:59:43;;;;;;;19.63;1.95;;;9.10;99.90;;;;;;5021204;23;20155;-93
2024/01/25 01:01:47;;;;;;;23.45;3.70;;;9.00;99.90;;;;;;5021133;23;20161;-92
2024/01/25 01:03:52;;;;;;;16.98;2.17;;;8.90;99.90;;;;;;5045466;23;20639;-94
2024/01/25 01:05:53;;;;;;;15.40;2.22;;;8.80;99.90;;;;;;5021479;23;20234;-94
2024/01/25 01:07:54;;;;;;;21.13;2.28;;;8.80;99.90;;;;;;5021489;23;20487;-94
2024/01/25 01:09:55;;;;;;;22.42;3.00;;;8.80;99.90;;;;;;5021642;23;20155;-94
2024/01/25 01:11:56;;;;;;;23.27;2.83;;;8.80;99.90;;;;;;5045156;23;20575;-93
2024/01/25 01:13:57;;;;;;;9.75;1.30;;;8.70;99.90;;;;;;5021814;23;20152;-94
2024/01/25 01:15:58;;;;;;;13.73;2.78;;;8.60;99.90;;;;;;5045079;23;20213;-94
2024/01/25 01:17:59;;;;;;;14.68;2.63;;;8.70;99.90;;;;;;5022514;23;20242;-93
2024/01/25 01:19:59;;;;;;;17.95;3.63;;;8.70;99.90;;;;;;5045123;23;20165;-93
2024/01/25 01:22:00;;;;;;;12.38;2.33;;;8.50;99.90;;;;;;5044573;23;20150;-93
2024/01/25 01:24:03;;;;;;;7.68;1.70;;;8.50;99.90;;;;;;5044752;23;20165;-94
2024/01/25 01:26:05;;;;;;;22.58;2.42;;;8.50;99.90;;;;;;5069547;23;20166;-94
2024/01/25 01:28:06;;;;;;;19.42;2.55;;;8.70;99.90;;;;;;5045373;23;20159;-94
2024/01/25 01:30:08;;;;;;;19.38;2.85;;;8.70;99.90;;;;;;5045567;23;20550;-93
2024/01/25 01:32:09;;;;;;;9.98;2.47;;;8.60;99.90;;;;;;5046545;23;20163;-93
2024/01/25 01:34:12;;;;;;;17.85;3.08;;;8.50;99.90;;;;;;5069076;23;20228;-93
2024/01/25 01:36:14;;;;;;;19.08;2.53;;;8.50;99.90;;;;;;5044480;23;20201;-93
2024/01/25 01:38:14;;;;;;;13.77;2.25;;;8.50;99.90;;;;;;5044192;23;20160;-94
2024/01/25 01:40:15;;;;;;;9.68;1.67;;;8.40;99.90;;;;;;5068767;23;20216;-94
2024/01/25 01:42:16;;;;;;;19.48;2.30;;;8.40;99.90;;;;;;5044751;23;20593;-94
2024/01/25 01:44:17;;;;;;;12.73;2.75;;;8.30;99.90;;;;;;5068980;23;20150;-93
2024/01/25 01:46:37;;;;;;;37.63;3.95;;;8.30;99.90;;;;;;5044504;23;20520;-94
2024/01/25 01:48:39;;;;;;;16.98;2.00;;;8.30;99.90;;;;;;5045025;23;20158;-94
2024/01/25 01:50:41;;;;;;;16.05;2.13;;;8.30;99.90;;;;;;5069084;23;20154;-93
2024/01/25 01:52:42;;;;;;;9.88;1.48;;;8.30;99.90;;;;;;5068922;23;20185;-94
2024/01/25 01:54:44;;;;;;;12.52;2.90;;;8.30;99.90;;;;;;5044797;23;20602;-95
2024/01/25 01:56:45;;;;;;;11.32;2.33;;;8.30;99.90;;;;;;5068516;23;20201;-93
2024/01/25 01:58:48;;;;;;;11.75;2.08;;;8.40;99.90;;;;;;5069266;23;20145;-94
2024/01/25 02:00:50;;;;;;;26.42;3.70;;;8.40;99.90;;;;;;5069225;23;20161;-93
2024/01/25 02:02:51;;;;;;;17.85;2.92;;;8.50;99.90;;;;;;5068539;23;20154;-93
2024/01/25 02:04:52;;;;;;;17.27;2.47;;;8.40;99.90;;;;;;5068890;23;20156;-95
2024/01/25 02:06:53;;;;;;;13.05;2.95;;;8.30;99.90;;;;;;5068883;23;20178;-94
2024/01/25 02:08:55;;;;;;;13.55;1.95;;;8.30;99.90;;;;;;5045117;23;20150;-92
2024/01/25 02:10:56;;;;;;;19.88;3.58;;;8.50;99.90;;;;;;5045001;23;20605;-95
2024/01/25 02:12:57;;;;;;;11.65;2.33;;;8.60;99.90;;;;;;5045837;23;20150;-94
2024/01/25 02:14:58;;;;;;;32.38;3.40;;;8.50;99.90;;;;;;5044756;23;20192;-94
2024/01/25 02:16:59;;;;;;;22.40;3.03;;;8.40;99.90;;;;;;5049005;23;20174;-94
2024/01/25 02:19:00;;;;;;;13.30;2.90;;;8.30;99.90;;;;;;5031124;23;20163;-94
2024/01/25 02:21:01;;;;;;;23.00;3.38;;;8.30;99.90;;;;;;5020764;23;20629;-93
2024/01/25 02:23:02;;;;;;;25.85;4.07;;;8.40;99.90;;;;;;5020396;23;20190;-94
2024/01/25 02:25:03;;;;;;;11.65;2.45;;;8.30;99.90;;;;;;5045267;23;20585;-94
2024/01/25 02:27:05;;;;;;;10.40;2.03;;;8.20;99.90;;;;;;5022029;23;20681;-93
2024/01/25 02:29:08;;;;;;;11.68;2.20;;;8.10;99.90;;;;;;5020432;23;20158;-94
2024/01/25 02:31:09;;;;;;;10.20;1.95;;;8.00;99.90;;;;;;5068626;23;20580;-94
2024/01/25 02:33:09;;;;;;;23.27;3.33;;;8.00;99.90;;;;;;5020262;23;20155;-93
2024/01/25 02:35:10;;;;;;;35.13;3.03;;;7.90;99.90;;;;;;5020341;23;20191;-95
2024/01/25 02:37:12;;;;;;;21.42;2.03;;;7.90;99.90;;;;;;5044249;23;20675;-93
2024/01/25 02:39:13;;;;;;;18.27;2.83;;;7.90;99.90;;;;;;5021859;23;20155;-92
2024/01/25 02:41:13;;;;;;;23.17;2.95;;;7.80;99.90;;;;;;5020651;23;20159;-94
2024/01/25 02:43:14;;;;;;;7.00;2.20;;;7.80;99.90;;;;;;5021415;23;20156;-93
2024/01/25 02:45:15;;;;;;;10.68;1.88;;;7.70;99.90;;;;;;5044117;23;20478;-94
2024/01/25 02:47:16;;;;;;;17.27;2.22;;;7.70;99.90;;;;;;5020175;23;20183;-94
2024/01/25 02:49:17;;;;;;;18.40;2.42;;;7.70;99.90;;;;;;5044073;23;20154;-93
2024/01/25 02:51:18;;;;;;;19.58;2.28;;;7.70;99.90;;;;;;5020876;23;20487;-94
2024/01/25 02:53:18;;;;;;;12.27;2.50;;;7.70;99.90;;;;;;5068451;23;20150;-93
2024/01/25 02:55:19;;;;;;;13.35;2.53;;;7.70;99.90;;;;;;5020751;23;20594;-93
2024/01/25 02:57:20;;;;;;;26.35;3.03;;;7.70;99.90;;;;;;5043911;23;20206;-92
2024/01/25 02:59:21;;;;;;;16.05;2.45;;;7.60;99.90;;;;;;5020410;23;20168;-93
2024/01/25 03:01:22;;;;;;;13.15;3.13;;;7.50;99.90;;;;;;5067804;23;20165;-94
2024/01/25 03:03:26;;;;;;;13.43;2.60;;;7.50;99.90;;;;;;5043990;23;20150;-94
2024/01/25 03:05:27;;;;;;;26.23;2.30;;;7.40;99.90;;;;;;5044122;23;20178;-92
2024/01/25 03:07:28;;;;;;;23.13;2.13;;;7.40;99.90;;;;;;5068358;23;20165;-94
2024/01/25 03:09:29;;;;;;;22.13;2.63;;;7.40;99.90;;;;;;5020366;23;20241;-94
2024/01/25 03:11:30;;;;;;;11.57;1.85;;;7.40;99.90;;;;;;5068456;23;20221;-93
2024/01/25 03:13:31;;;;;;;24.92;2.53;;;7.50;99.90;;;;;;5020602;23;20155;-93
2024/01/25 03:15:32;;;;;;;14.25;2.97;;;7.50;99.90;;;;;;5068533;23;20197;-93
2024/01/25 03:17:33;;;;;;;24.02;2.88;;;7.60;99.90;;;;;;5020521;23;20179;-93
2024/01/25 03:19:34;;;;;;;19.58;2.85;;;7.60;99.90;;;;;;5040748;23;20173;-93
2024/01/25 03:21:35;;;;;;;16.63;2.33;;;7.60;99.90;;;;;;5020666;23;20165;-93
2024/01/25 03:23:35;;;;;;;15.75;3.17;;;7.50;99.90;;;;;;5045588;23;20154;-94
2024/01/25 03:25:36;;;;;;;14.35;2.85;;;7.60;99.90;;;;;;5020978;23;20608;-93
2024/01/25 03:27:37;;;;;;;16.15;2.45;;;7.60;99.90;;;;;;5020469;23;20163;-93
2024/01/25 03:29:38;;;;;;;17.10;2.88;;;7.50;99.90;;;;;;5020239;23;20226;-94
2024/01/25 03:31:39;;;;;;;14.55;3.20;;;7.50;99.90;;;;;;5020397;23;20165;-94
2024/01/25 03:33:39;;;;;;;32.50;2.63;;;7.50;99.90;;;;;;5020472;23;20189;-94
2024/01/25 03:35:40;;;;;;;3.25;1.05;;;7.40;99.90;;;;;;5043777;23;20194;-93
2024/01/25 03:37:41;;;;;;;14.02;1.98;;;7.50;99.90;;;;;;5044045;23;20490;-94
2024/01/25 03:39:42;;;;;;;13.38;2.67;;;7.50;99.90;;;;;;5021447;23;20159;-94
2024/01/25 03:41:43;;;;;;;18.95;2.00;;;7.40;99.90;;;;;;5020449;23;20162;-94
2024/01/25 03:43:45;;;;;;;16.95;1.58;;;7.40;99.90;;;;;;5044402;23;20158;-94
2024/01/25 03:45:45;;;;;;;12.02;2.42;;;7.40;99.90;;;;;;5020219;23;20227;-92
2024/01/25 03:47:46;;;;;;;22.10;4.68;;;7.40;99.90;;;;;;5044689;23;20680;-94
2024/01/25 03:49:47;;;;;;;18.58;2.47;;;7.50;99.90;;;;;;5019899;23;20161;-93
2024/01/25 03:51:49;;;;;;;22.92;2.72;;;7.40;99.90;;;;;;5045314;23;20181;-92
2024/01/25 03:53:50;;;;;;;36.58;2.20;;;7.40;99.90;;;;;;5020240;23;20151;-94
2024/01/25 03:55:51;;;;;;;17.13;3.50;;;7.40;99.90;;;;;;5044643;23;20201;-94
2024/01/25 03:57:51;;;;;;;11.05;2.10;;;7.50;99.90;;;;;;5020300;23;20228;-94
2024/01/25 03:59:52;;;;;;;26.45;2.45;;;7.40;99.90;;;;;;5021499;23;20638;-95
2024/01/25 04:01:53;;;;;;;17.67;1.90;;;7.50;99.90;;;;;;5021269;23;20511;-94
2024/01/25 04:03:54;;;;;;;9.48;1.65;;;7.50;99.90;;;;;;5045944;23;20271;-93
2024/01/25 04:05:55;;;;;;;7.65;1.92;;;7.40;99.90;;;;;;5021762;23;20527;-93
2024/01/25 04:07:56;;;;;;;14.27;2.42;;;7.40;99.90;;;;;;5046181;23;20554;-94
2024/01/25 04:09:57;;;;;;;13.77;1.77;;;7.30;99.90;;;;;;5022255;23;20155;-93
2024/01/25 04:11:57;;;;;;;7.03;1.80;;;7.30;99.90;;;;;;5022074;23;20238;-93
2024/01/25 04:13:58;;;;;;;17.77;2.05;;;7.30;99.90;;;;;;5021824;23;20418;-95
2024/01/25 04:15:59;;;;;;;10.45;2.10;;;7.20;99.90;;;;;;5021176;23;20194;-93
2024/01/25 04:18:03;;;;;;;18.80;2.35;;;7.10;99.90;;;;;;5023136;23;20174;-94
2024/01/25 04:20:04;;;;;;;7.32;1.10;;;6.90;99.90;;;;;;5045765;23;20593;-95
2024/01/25 04:22:05;;;;;;;12.73;1.40;;;6.90;99.90;;;;;;5022224;23;20159;-95
2024/01/25 04:24:06;;;;;;;13.77;2.25;;;7.00;99.90;;;;;;5045914;23;20250;-94
2024/01/25 04:26:07;;;;;;;11.68;2.30;;;7.00;99.90;;;;;;5045587;23;20174;-93
2024/01/25 04:28:08;;;;;;;14.88;2.53;;;7.00;99.90;;;;;;5022016;23;20163;-93
2024/01/25 04:30:10;;;;;;;12.27;1.88;;;7.10;99.90;;;;;;5021510;23;20195;-93
2024/01/25 04:32:12;;;;;;;11.90;1.55;;;7.10;99.90;;;;;;5045736;23;20154;-94
2024/01/25 04:34:14;;;;;;;12.43;1.33;;;7.10;99.90;;;;;;5046320;23;20153;-94
2024/01/25 04:36:14;;;;;;;17.17;3.00;;;7.00;99.90;;;;;;5046092;23;20198;-93
2024/01/25 04:38:15;;;;;;;17.02;1.60;;;7.00;99.90;;;;;;5047805;23;20202;-94
2024/01/25 04:40:16;;;;;;;7.97;2.17;;;7.00;99.90;;;;;;5047404;23;20169;-94
2024/01/25 04:42:18;;;;;;;15.10;2.30;;;7.10;99.90;;;;;;5022034;23;20630;-93
2024/01/25 04:44:19;;;;;;;25.95;3.47;;;7.10;99.90;;;;;;5021097;23;20253;-94
2024/01/25 04:46:19;;;;;;;9.55;1.92;;;6.90;99.90;;;;;;5020756;23;20167;-93
2024/01/25 04:48:20;;;;;;;17.20;2.80;;;6.80;99.90;;;;;;5045140;23;20185;-94
2024/01/25 04:50:21;;;;;;;9.40;2.38;;;6.70;99.90;;;;;;5045161;23;20158;-93
2024/01/25 04:52:22;;;;;;;9.70;1.92;;;6.70;99.90;;;;;;5045484;23;20202;-93
2024/01/25 04:54:23;;;;;;;17.52;2.83;;;6.80;99.90;;;;;;5046208;23;20185;-94
2024/01/25 04:56:24;;;;;;;9.30;1.77;;;6.80;99.90;;;;;;5023585;23;20282;-94
2024/01/25 04:58:25;;;;;;;12.07;2.10;;;6.90;99.90;;;;;;5021805;23;20151;-94
2024/01/25 05:00:26;;;;;;;13.10;1.75;;;6.80;99.90;;;;;;5046609;23;20181;-93
2024/01/25 05:02:32;;;;;;;8.32;1.75;;;6.70;99.90;;;;;;5045738;23;20193;-93
2024/01/25 05:04:34;;;;;;;9.30;2.97;;;6.50;99.90;;;;;;5021133;23;20159;-93
2024/01/25 05:06:35;;;;;;;14.60;2.00;;;6.50;99.90;;;;;;5021632;23;20174;-94
2024/01/25 05:08:36;;;;;;;13.82;2.97;;;6.50;99.90;;;;;;5022294;23;20165;-94
2024/01/25 05:10:37;;;;;;;11.97;2.23;;;6.50;99.90;;;;;;5023023;23;20494;-93
2024/01/25 05:12:38;;;;;;;12.48;1.35;;;6.60;99.90;;;;;;5046919;23;20578;-92
2024/01/25 05:14:39;;;;;;;13.85;2.28;;;6.60;99.90;;;;;;5044984;23;20661;-93
2024/01/25 05:16:40;;;;;;;6.03;1.90;;;6.50;99.90;;;;;;5044669;23;20194;-93
2024/01/25 05:18:41;;;;;;;16.40;2.17;;;6.30;99.90;;;;;;5020939;23;20169;-93
2024/01/25 05:20:42;;;;;;;20.75;3.40;;;6.20;99.90;;;;;;5045225;23;20177;-93
2024/01/25 05:22:42;;;;;;;11.10;1.57;;;6.30;99.90;;;;;;5027482;23;20153;-94
2024/01/25 05:24:45;;;;;;;19.00;1.95;;;6.50;99.90;;;;;;5046724;23;20158;-94
2024/01/25 05:26:46;;;;;;;15.45;1.40;;;6.70;99.90;;;;;;5021662;23;20298;-93
2024/01/25 05:28:47;;;;;;;13.73;2.13;;;6.80;99.90;;;;;;5021097;23;20618;-93
2024/01/25 05:30:48;;;;;;;2.13;1.20;;;6.70;99.90;;;;;;5021129;23;20178;-93
2024/01/25 05:32:50;;;;;;;12.13;1.90;;;6.50;99.90;;;;;;5022487;23;20162;-92
2024/01/25 05:34:51;;;;;;;13.23;2.17;;;6.20;99.90;;;;;;5020965;23;20155;-93
2024/01/25 05:36:51;;;;;;;18.27;2.00;;;6.20;99.90;;;;;;5021113;23;20263;-94
2024/01/25 05:38:55;;;;;;;11.05;2.40;;;6.20;99.90;;;;;;5046144;23;20150;-94
2024/01/25 05:40:56;;;;;;;9.00;2.40;;;6.40;99.90;;;;;;5047317;23;20158;-94
2024/01/25 05:42:57;;;;;;;10.63;2.60;;;6.50;99.90;;;;;;5046113;23;20146;-94
2024/01/25 05:44:58;;;;;;;12.57;1.73;;;6.60;99.90;;;;;;5021041;23;20682;-92
2024/01/25 05:46:59;;;;;;;20.57;4.37;;;6.50;99.90;;;;;;5044655;23;20202;-93
2024/01/25 05:49:00;;;;;;;16.05;2.20;;;6.40;99.90;;;;;;5021342;23;20175;-93
2024/01/25 05:51:01;;;;;;;12.50;2.93;;;6.20;99.90;;;;;;5021901;23;20229;-93
2024/01/25 05:53:02;;;;;;;13.80;2.13;;;6.10;99.90;;;;;;5021109;23;20206;-94
2024/01/25 05:55:07;;;;;;;8.40;1.50;;;6.10;99.90;;;;;;5044332;23;20150;-93
2024/01/25 05:57:08;;;;;;;5.88;2.08;;;6.10;99.90;;;;;;5045327;23;20178;-93
2024/01/25 05:59:09;;;;;;;20.67;3.67;;;6.20;99.90;;;;;;5021410;23;20226;-95
2024/01/25 06:01:10;;;;;;;22.50;2.93;;;6.30;99.90;;;;;;5021168;23;20620;-93
2024/01/25 06:03:11;;;;;;;7.63;2.00;;;6.30;99.90;;;;;;5045727;23;20183;-94
2024/01/25 06:05:12;;;;;;;5.13;1.37;;;6.20;99.90;;;;;;5020859;23;20155;-93
2024/01/25 06:07:13;;;;;;;14.55;1.90;;;6.20;99.90;;;;;;5020989;23;20178;-95
2024/01/25 06:09:17;;;;;;;23.30;3.97;;;6.20;99.90;;;;;;5044484;23;20158;-92
2024/01/25 06:11:17;;;;;;;13.60;1.97;;;6.20;99.90;;;;;;5044470;23;20157;-94
2024/01/25 06:13:18;;;;;;;12.93;2.47;;;6.30;99.90;;;;;;5020118;23;20206;-93
2024/01/25 06:15:20;;;;;;;16.50;2.03;;;6.50;99.90;;;;;;5021136;23;20261;-94
2024/01/25 06:17:20;;;;;;;5.55;1.52;;;6.60;99.90;;;;;;5044360;23;20182;-93
2024/01/25 06:19:21;;;;;;;5.82;1.48;;;6.80;99.90;;;;;;5020508;23;20242;-92
2024/01/25 06:21:22;;;;;;;7.47;1.83;;;6.60;99.90;;;;;;5044465;23;20217;-92
2024/01/25 06:23:23;;;;;;;9.50;2.90;;;6.40;99.90;;;;;;5020652;23;20153;-93
2024/01/25 06:25:24;;;;;;;16.63;2.47;;;6.20;99.90;;;;;;5020350;23;20151;-93
2024/01/25 06:27:25;;;;;;;10.20;2.13;;;6.00;99.90;;;;;;5044381;23;20501;-94
2024/01/25 06:29:26;;;;;;;10.73;2.23;;;6.00;99.90;;;;;;5044093;23;20159;-93
2024/01/25 06:31:27;;;;;;;21.00;3.17;;;6.10;99.90;;;;;;5068496;23;20640;-94
2024/01/25 06:33:28;;;;;;;2.57;1.23;;;6.00;99.90;;;;;;5020947;23;20670;-93
2024/01/25 06:35:29;;;;;;;11.05;1.95;;;6.10;99.90;;;;;;5069208;23;20173;-94
2024/01/25 06:37:30;;;;;;;1.57;1.20;;;6.10;99.90;;;;;;5045348;23;20154;-93
2024/01/25 06:39:32;;;;;;;2.67;1.00;;;5.90;99.90;;;;;;5021343;23;20190;-93
2024/01/25 06:41:37;;;;;;;5.07;1.77;;;5.90;99.90;;;;;;5020900;23;20234;-94
2024/01/25 06:43:49;;;;;;;5.33;1.43;;;5.90;99.90;;;;;;5044646;23;20213;-92
2024/01/25 06:45:50;;;;;;;9.50;2.23;;;6.00;99.90;;;;;;5044015;23;20518;-93
2024/01/25 06:47:50;;;;;;;3.50;1.63;;;6.20;99.90;;;;;;5044216;23;20158;-95
2024/01/25 06:49:51;;;;;;;3.57;1.47;;;6.40;99.90;;;;;;5020719;23;20265;-95
2024/01/25 06:51:52;;;;;;;7.00;1.57;;;6.60;99.90;;;;;;5044293;23;20225;-94
2024/01/25 06:53:53;;;;;;;12.30;2.93;;;6.70;99.90;;;;;;5045624;23;20154;-93
2024/01/25 06:55:55;;;;;;;7.97;1.67;;;6.40;99.90;;;;;;5068819;23;20217;-92
2024/01/25 06:57:56;;;;;;;4.27;1.10;;;6.10;99.90;;;;;;5022037;23;20162;-93
2024/01/25 06:59:57;;;;;;;33.27;2.80;;;6.00;99.90;;;;;;5044356;23;20154;-95
2024/01/25 07:01:58;;;;;;;32.73;2.47;;;6.00;99.90;;;;;;5021880;23;20242;-92
2024/01/25 07:03:58;;;;;;;23.80;2.10;;;5.90;99.90;;;;;;5021544;23;20159;-94
2024/01/25 07:05:59;;;;;;;3.07;1.77;;;6.00;99.90;;;;;;5022564;23;20175;-94
2024/01/25 07:08:00;;;;;;;3.83;1.00;;;6.10;99.90;;;;;;5021593;23;20162;-94
2024/01/25 07:10:01;;;;;;;3.07;1.70;;;6.20;99.90;;;;;;5021096;23;20169;-93
2024/01/25 07:12:02;;;;;;;7.77;1.33;;;6.30;99.90;;;;;;5020793;23;20188;-94
2024/01/25 07:14:03;;;;;;;26.23;1.90;;;6.20;99.90;;;;;;5020929;23;20519;-94
2024/01/25 07:16:04;;;;;;;2.33;0.90;;;6.10;99.90;;;;;;5021914;23;20194;-96
2024/01/25 07:18:05;;;;;;;9.00;1.90;;;6.00;99.90;;;;;;5023030;23;20174;-94
2024/01/25 07:20:06;;;;;;;3.17;1.67;;;6.00;99.90;;;;;;5068760;23;20236;-94
2024/01/25 07:22:07;;;;;;;17.87;3.67;;;5.90;99.90;;;;;;5045820;23;20157;-94
2024/01/25 07:24:08;;;;;;;2.93;1.50;;;6.00;99.90;;;;;;5045815;23;20162;-94
2024/01/25 07:26:17;;;;;;;2.37;1.20;;;6.30;99.90;;;;;;5044591;23;20456;-96
2024/01/25 07:28:19;;;;;;;3.77;1.50;;;6.40;99.90;;;;;;5044292;23;20153;-95
2024/01/25 07:30:20;;;;;;;6.38;1.20;;;6.50;99.90;;;;;;5045182;23;20505;-96
2024/01/25 07:32:21;;;;;;;1.65;0.98;;;6.70;99.90;;;;;;5044191;23;20182;-94
2024/01/25 07:34:22;;;;;;;8.80;2.13;;;6.80;99.90;;;;;;5045685;23;20515;-95
2024/01/25 07:36:23;;;;;;;4.50;2.43;;;6.70;99.90;;;;;;5068570;23;20236;-94
2024/01/25 07:38:24;;;;;;;3.43;1.83;;;6.60;99.90;;;;;;5047259;23;20217;-95
2024/01/25 07:40:25;;;;;;;18.97;2.50;;;6.50;99.90;;;;;;5069458;23;20150;-95
2024/01/25 07:42:25;;;;;;;3.88;2.03;;;6.50;99.90;;;;;;5045204;23;20162;-94
2024/01/25 07:44:26;;;;;;;3.17;1.27;;;6.80;99.90;;;;;;5044248;23;20150;-94
2024/01/25 07:46:30;;;;;;;6.97;1.52;;;6.90;99.90;;;;;;5046891;23;20162;-95
2024/01/25 07:48:32;;;;;;;22.05;3.10;;;7.10;99.90;;;;;;5045643;23;20150;-94
2024/01/25 07:50:33;;;;;;;4.05;1.48;;;7.10;99.90;;;;;;5044883;23;20155;-96
2024/01/25 07:52:34;;;;;;;2.20;1.42;;;7.10;99.90;;;;;;5068485;23;20588;-95
2024/01/25 07:54:34;;;;;;;8.47;2.13;;;6.80;99.90;;;;;;5044568;23;20222;-95
2024/01/25 07:56:35;;;;;;;2.83;1.67;;;6.70;99.90;;;;;;5043863;23;20735;-93
2024/01/25 07:58:37;;;;;;;32.33;2.97;;;6.50;99.90;;;;;;5044142;23;20150;-94
2024/01/25 08:00:38;;;;;;;6.43;2.57;;;6.50;99.90;;;;;;5044534;23;20181;-95
2024/01/25 08:02:42;;;;;;;19.87;3.40;;;6.60;99.90;;;;;;5044604;23;20509;-96
2024/01/25 08:04:43;;;;;;;4.23;1.83;;;6.70;99.90;;;;;;5044589;23;20155;-95
2024/01/25 08:06:47;;;;;;;4.13;2.07;;;6.80;99.90;;;;;;5045242;23;20305;-94
2024/01/25 08:08:48;;;;;;;32.13;2.97;;;6.70;99.90;;;;;;5045459;23;20154;-94
2024/01/25 08:10:49;;;;;;;10.88;2.90;;;6.60;99.90;;;;;;5044027;23;20213;-94
2024/01/25 08:12:50;;;;;;;34.20;2.60;;;6.60;99.90;;;;;;5068300;23;20150;-94
2024/01/25 08:14:51;;;;;;;5.27;2.60;;;6.50;99.90;;;;;;5044095;23;20159;-93
2024/01/25 08:16:52;;;;;;;3.10;1.57;;;6.50;99.90;;;;;;5044279;23;20190;-95
2024/01/25 08:18:53;;;;;;;5.40;1.90;;;6.40;99.90;;;;;;5055938;23;20178;-95
2024/01/25 08:20:54;;;;;;;3.73;1.70;;;6.50;99.90;;;;;;5020773;23;20159;-94
2024/01/25 08:22:57;;;;;;;20.20;2.60;;;6.60;99.90;;;;;;5021070;23;20174;-94
2024/01/25 08:25:04;;;;;;;33.08;3.17;;;6.60;99.90;;;;;;5021114;23;20159;-93
2024/01/25 08:27:07;;;;;;;3.63;1.80;;;6.90;99.90;;;;;;5020113;23;20179;-94
2024/01/25 08:29:13;;;;;;;7.53;2.23;;;7.10;99.90;;;;;;5022611;23;20135;-94
2024/01/25 08:31:19;;;;;;;7.32;2.13;;;7.30;99.90;;;;;;5022964;23;20155;-95
2024/01/25 08:33:20;;;;;;;2.97;1.92;;;7.40;99.90;;;;;;5020504;23;20151;-94
2024/01/25 08:35:21;;;;;;;4.60;1.87;;;7.50;99.90;;;;;;5043988;23;20269;-93
2024/01/25 08:37:22;;;;;;;7.53;1.77;;;7.30;99.90;;;;;;5020565;23;20174;-94
2024/01/25 08:39:23;;;;;;;2.50;1.33;;;7.40;99.90;;;;;;5019746;23;20201;-92
2024/01/25 08:41:24;;;;;;;3.72;1.75;;;7.60;99.90;;;;;;5019913;23;20159;-95
2024/01/25 08:43:24;;;;;;;4.40;1.15;;;7.40;99.90;;;;;;5044156;23;20194;-93
2024/01/25 08:45:25;;;;;;;3.47;1.67;;;7.30;99.90;;;;;;5044214;23;20150;-93
2024/01/25 08:47:31;;;;;;;2.07;1.40;;;7.10;99.90;;;;;;5021067;23;20171;-94
2024/01/25 08:49:32;;;;;;;7.97;2.08;;;7.10;99.90;;;;;;5021543;23;20159;-94
2024/01/25 08:51:33;;;;;;;5.80;2.28;;;7.20;99.90;;;;;;5044942;23;20237;-96
2024/01/25 08:53:36;;;;;;;4.55;2.10;;;7.30;99.90;;;;;;5021593;23;20163;-95
2024/01/25 08:55:37;;;;;;;4.88;2.30;;;7.50;99.90;;;;;;5021888;23;20199;-94
2024/01/25 08:57:41;;;;;;;12.45;3.28;;;7.60;99.90;;;;;;5045483;23;20153;-94
2024/01/25 08:59:42;;;;;;;5.13;2.20;;;7.70;99.90;;;;;;5020759;23;20159;-94
2024/01/25 09:01:42;;;;;;;6.15;1.73;;;7.60;99.90;;;;;;5045462;23;20150;-95
2024/01/25 09:03:43;;;;;;;3.03;1.80;;;7.60;99.90;;;;;;5021862;23;20162;-94
2024/01/25 09:05:47;;;;;;;4.00;1.73;;;7.70;99.90;;;;;;5021548;23;20680;-94
2024/01/25 09:07:50;;;;;;;12.88;2.55;;;7.50;99.90;;;;;;5021700;23;20158;-93
2024/01/25 09:09:51;;;;;;;7.22;1.38;;;7.30;99.90;;;;;;5021979;23;20586;-93
2024/01/25 09:11:52;;;;;;;7.60;2.78;;;7.10;99.90;;;;;;5021637;23;20155;-95
2024/01/25 09:13:53;;;;;;;4.80;1.77;;;7.20;99.90;;;;;;5021770;23;20490;-94
2024/01/25 09:15:54;;;;;;;10.07;2.20;;;7.30;99.90;;;;;;5021195;23;20194;-94
2024/01/25 09:17:55;;;;;;;12.70;2.47;;;7.30;99.90;;;;;;5022953;23;20190;-93
2024/01/25 09:19:58;;;;;;;6.73;1.83;;;7.50;99.90;;;;;;5070712;23;20158;-94
2024/01/25 09:22:04;;;;;;;2.17;1.10;;;7.70;99.90;;;;;;5045832;23;20146;-95
2024/01/25 09:24:11;;;;;;;5.30;2.37;;;7.80;99.90;;;;;;5071318;23;20149;-94
2024/01/25 09:26:26;;;;;;;5.30;2.30;;;7.90;99.90;;;;;;5045666;23;20201;-95
2024/01/25 09:28:27;;;;;;;4.38;1.70;;;8.10;99.90;;;;;;5045483;23;20161;-94
2024/01/25 09:30:44;;;;;;;20.85;3.78;;;7.90;99.90;;;;;;5045729;23;20581;-95
2024/01/25 09:32:51;;;;;;;4.47;2.13;;;7.90;99.90;;;;;;5045858;23;20213;-95
2024/01/25 09:34:54;;;;;;;4.45;1.45;;;7.90;99.90;;;;;;5045476;23;20390;-95
2024/01/25 09:36:57;;;;;;;7.60;3.03;;;8.10;99.90;;;;;;5045103;23;20260;-96
2024/01/25 09:38:58;;;;;;;2.75;1.63;;;8.30;99.90;;;;;;5045153;23;20186;-95
2024/01/25 09:41:01;;;;;;;13.60;3.78;;;8.20;99.90;;;;;;5044874;23;20190;-93
2024/01/25 09:43:02;;;;;;;4.70;2.03;;;8.30;99.90;;;;;;5045426;23;20150;-93
2024/01/25 09:45:11;;;;;;;5.65;2.00;;;8.20;99.90;;;;;;5071508;23;20607;-94
2024/01/25 09:47:16;;;;;;;5.40;1.70;;;8.20;99.90;;;;;;5045259;23;21115;-94
2024/01/25 09:49:20;;;;;;;5.97;2.28;;;8.10;99.90;;;;;;5070265;23;20213;-94
2024/01/25 09:51:32;;;;;;;5.82;2.40;;;8.20;99.90;;;;;;5044582;23;20150;-95
2024/01/25 09:53:33;;;;;;;5.63;2.28;;;8.20;99.90;;;;;;5045071;23;20150;-94
2024/01/25 09:55:42;;;;;;;27.90;3.45;;;8.20;99.90;;;;;;5044985;23;20182;-94
2024/01/25 09:57:48;;;;;;;6.25;2.53;;;8.30;99.90;;;;;;5070240;23;20150;-94
2024/01/25 09:59:50;;;;;;;8.40;2.70;;;8.40;99.90;;;;;;5045796;23;20165;-93
2024/01/25 10:02:34;;;;;;;6.88;2.30;;;8.50;99.90;;;;;;5044641;23;20157;-94
2024/01/25 10:04:56;;;;;;;5.57;2.45;;;8.50;99.90;;;;;;4972084;23;20199;-96
2024/01/25 10:06:58;;;;;;;4.57;2.15;;;8.70;99.90;;;;;;4949547;24;20173;-94
2024/01/25 10:09:03;;;;;;;8.88;2.90;;;8.60;99.90;;;;;;4927460;24;20169;-96
2024/01/25 10:11:05;;;;;;;8.85;2.75;;;8.70;99.90;;;;;;4926748;24;20330;-94
2024/01/25 10:13:21;;;;;;;;;;;;;;;;;;;;;
2024/01/25 10:15:24;;;;;;;7.57;2.78;;;8.90;99.90;;;;;;5068678;23;20153;-95
2024/01/25 10:17:25;;;;;;;11.63;3.25;;;8.90;99.90;;;;;;5069439;23;20173;-96
2024/01/25 10:19:26;;;;;;;15.63;3.65;;;8.80;99.90;;;;;;5044441;23;20166;-94
2024/01/25 10:21:27;;;;;;;15.10;3.67;;;9.00;99.90;;;;;;5020728;23;20234;-95
2024/01/25 10:23:34;;;;;;;10.35;3.50;;;9.10;99.90;;;;;;5021521;23;20151;-95
2024/01/25 10:25:38;;;;;;;9.38;2.55;;;9.40;99.90;;;;;;5020909;23;20187;-94
2024/01/25 10:27:44;;;;;;;12.27;4.35;;;9.40;99.90;;;;;;5044810;23;20637;-94
2024/01/25 10:29:45;;;;;;;8.40;3.13;;;9.60;99.90;;;;;;5044169;23;20181;-94
2024/01/25 10:31:46;;;;;;;15.23;3.85;;;9.60;99.90;;;;;;5020826;23;20154;-95
2024/01/25 10:33:54;;;;;;;16.50;3.92;;;9.40;99.90;;;;;;5070245;23;20192;-94
2024/01/25 10:36:04;;;;;;;10.63;2.25;;;9.20;99.90;;;;;;5050054;23;20264;-96
2024/01/25 10:38:06;;;;;;;12.40;4.63;;;9.10;99.90;;;;;;5072652;23;20161;-93
2024/01/25 10:40:10;;;;;;;22.05;4.38;;;9.10;99.90;;;;;;5044916;23;20154;-94